Time,TemperatureF,DewpointF,PressureIn,WindDirection,WindDirectionDegrees,WindSpeedMPH,WindSpeedGustMPH,Humidity,HourlyPrecipIn,Conditions,Clouds,dailyrainin,SoftwareType,DateUTC
2013-02-13 00:03:00,37.9,33.0,30.29,SE,145,0.0,-999.0,82,-99.99,,,0.00,weatherlink.com 1.10,2013-02-13 08:03:00,
2013-02-13 00:18:00,38.1,33.0,30.29,SE,136,0.0,-999.0,82,-99.99,,,0.00,weatherlink.com 1.10,2013-02-13 08:18:00,
2013-02-13 00:33:00,38.2,33.0,30.28,SE,128,0.0,-999.0,82,-99.99,,,0.00,weatherlink.com 1.10,2013-02-13 08:33:00,
2013-02-13 00:48:00,38.0,33.0,30.28,SE,128,0.0,-999.0,82,-99.99,,,0.00,weatherlink.com 1.10,2013-02-13 08:48:00,
2013-02-13 01:04:00,37.7,33.0,30.28,SE,128,0.0,-999.0,83,-99.99,,,0.00,weatherlink.com 1.10,2013-02-13 09:04:00,
2013-02-13 01:18:00,37.9,33.0,30.28,SE,128,0.0,-999.0,83,-99.99,,,0.00,weatherlink.com 1.10,2013-02-13 09:18:00,
2013-02-13 01:33:00,37.5,33.0,30.28,SE,128,0.0,-999.0,83,-99.99,,,0.00,weatherlink.com 1.10,2013-02-13 09:33:00,
2013-02-13 01:48:00,37.0,33.0,30.28,SE,128,0.0,-999.0,84,-99.99,,,0.00,weatherlink.com 1.10,2013-02-13 09:48:00,
2013-02-13 02:04:00,36.7,33.0,30.28,SE,128,0.0,-999.0,85,-99.99,,,0.00,weatherlink.com 1.10,2013-02-13 10:04:00,
2013-02-13 02:18:00,36.1,32.0,30.27,SE,128,0.0,-999.0,86,-99.99,,,0.00,weatherlink.com 1.10,2013-02-13 10:18:00,
2013-02-13 02:33:00,35.7,32.0,30.28,SE,128,0.0,-999.0,87,-99.99,,,0.00,weatherlink.com 1.10,2013-02-13 10:33:00,
2013-02-13 02:48:00,35.9,32.0,30.27,ESE,121,0.0,-999.0,87,-99.99,,,0.00,weatherlink.com 1.10,2013-02-13 10:48:00,
2013-02-13 03:33:00,35.1,32.0,30.27,ESE,121,0.0,-999.0,89,-99.99,,,0.00,weatherlink.com 1.10,2013-02-13 11:33:00,
2013-02-13 03:48:00,35.0,32.0,30.27,ESE,121,0.0,-999.0,89,-99.99,,,0.00,weatherlink.com 1.10,2013-02-13 11:48:00,
2013-02-13 04:03:00,35.2,32.0,30.26,ESE,121,0.0,-999.0,89,-99.99,,,0.00,weatherlink.com 1.10,2013-02-13 12:03:00,
2013-02-13 04:19:00,34.8,32.0,30.27,ESE,121,0.0,-999.0,90,-99.99,,,0.00,weatherlink.com 1.10,2013-02-13 12:19:00,
2013-02-13 04:34:00,34.7,32.0,30.27,ESE,121,0.0,-999.0,90,-99.99,,,0.00,weatherlink.com 1.10,2013-02-13 12:34:00,
2013-02-13 04:49:00,35.0,32.0,30.27,ESE,121,0.0,-999.0,90,-99.99,,,0.00,weatherlink.com 1.10,2013-02-13 12:49:00,
2013-02-13 05:04:00,34.8,32.0,30.27,ESE,121,0.0,-999.0,90,-99.99,,,0.00,weatherlink.com 1.10,2013-02-13 13:04:00,
2013-02-13 05:19:00,34.7,32.0,30.27,ESE,121,0.0,-999.0,90,-99.99,,,0.00,weatherlink.com 1.10,2013-02-13 13:19:00,
2013-02-13 05:34:00,34.6,32.0,30.27,SE,132,0.0,-999.0,91,-99.99,,,0.00,weatherlink.com 1.10,2013-02-13 13:34:00,
2013-02-13 05:49:00,35.1,33.0,30.27,SE,132,0.0,-999.0,91,-99.99,,,0.00,weatherlink.com 1.10,2013-02-13 13:49:00,
2013-02-13 06:04:00,35.6,33.0,30.27,SE,132,0.0,-999.0,89,-99.99,,,0.00,weatherlink.com 1.10,2013-02-13 14:04:00,
2013-02-13 06:19:00,35.3,32.0,30.27,SE,132,0.0,-999.0,89,-99.99,,,0.00,weatherlink.com 1.10,2013-02-13 14:19:00,
2013-02-13 06:34:00,34.7,32.0,30.27,SE,132,0.0,-999.0,90,-99.99,,,0.00,weatherlink.com 1.10,2013-02-13 14:34:00,
2013-02-13 06:49:00,34.4,32.0,30.28,SE,132,0.0,-999.0,91,-99.99,,,0.00,weatherlink.com 1.10,2013-02-13 14:49:00,
2013-02-13 07:04:00,34.5,32.0,30.28,SE,132,0.0,-999.0,91,-99.99,,,0.00,weatherlink.com 1.10,2013-02-13 15:04:00,
2013-02-13 07:19:00,34.8,32.0,30.28,SE,132,0.0,-999.0,90,-99.99,,,0.00,weatherlink.com 1.10,2013-02-13 15:19:00,
2013-02-13 07:34:00,34.6,32.0,30.29,SE,132,0.0,-999.0,91,-99.99,,,0.00,weatherlink.com 1.10,2013-02-13 15:34:00,
2013-02-13 07:49:00,34.9,33.0,30.30,SE,132,0.0,-999.0,91,-99.99,,,0.00,weatherlink.com 1.10,2013-02-13 15:49:00,
2013-02-13 08:04:00,35.1,33.0,30.30,SE,132,0.0,-999.0,91,-99.99,,,0.00,weatherlink.com 1.10,2013-02-13 16:04:00,
2013-02-13 08:19:00,35.4,33.0,30.30,SE,132,0.0,-999.0,90,-99.99,,,0.00,weatherlink.com 1.10,2013-02-13 16:19:00,
2013-02-13 08:34:00,35.8,33.0,30.31,SE,132,1.0,-999.0,90,-99.99,,,0.00,weatherlink.com 1.10,2013-02-13 16:34:00,
2013-02-13 08:49:00,36.2,34.0,30.31,SE,132,0.0,-999.0,90,-99.99,,,0.00,weatherlink.com 1.10,2013-02-13 16:49:00,
2013-02-13 09:04:00,36.1,33.0,30.32,SE,132,0.0,-999.0,89,-99.99,,,0.00,weatherlink.com 1.10,2013-02-13 17:04:00,
2013-02-13 09:19:00,35.8,33.0,30.32,SE,132,0.0,-999.0,90,-99.99,,,0.00,weatherlink.com 1.10,2013-02-13 17:19:00,
2013-02-13 09:34:00,35.7,33.0,30.32,SE,132,0.0,-999.0,90,-99.99,,,0.00,weatherlink.com 1.10,2013-02-13 17:34:00,
2013-02-13 09:49:00,36.7,34.0,30.32,SE,132,0.0,-999.0,90,-99.99,,,0.00,weatherlink.com 1.10,2013-02-13 17:49:00,
2013-02-13 10:04:00,38.4,35.0,30.32,SE,132,0.0,-999.0,87,-99.99,,,0.00,weatherlink.com 1.10,2013-02-13 18:04:00,
2013-02-13 10:19:00,40.3,36.0,30.33,SW,216,3.0,-999.0,83,-99.99,,,0.00,weatherlink.com 1.10,2013-02-13 18:19:00,
2013-02-13 10:34:00,40.8,35.0,30.32,West,280,7.0,-999.0,81,-99.99,,,0.00,weatherlink.com 1.10,2013-02-13 18:34:00,
2013-02-13 10:49:00,40.6,35.0,30.32,West,262,8.0,-999.0,81,-99.99,,,0.00,weatherlink.com 1.10,2013-02-13 18:49:00,
2013-02-13 11:04:00,41.0,35.0,30.32,West,268,3.0,-999.0,80,-99.99,,,0.00,weatherlink.com 1.10,2013-02-13 19:04:00,
2013-02-13 11:19:00,41.0,35.0,30.32,WNW,284,4.0,-999.0,79,-99.99,,,0.00,weatherlink.com 1.10,2013-02-13 19:19:00,
2013-02-13 11:34:00,40.9,35.0,30.32,West,277,2.0,-999.0,79,-99.99,,,0.00,weatherlink.com 1.10,2013-02-13 19:34:00,
2013-02-13 11:49:00,41.2,35.0,30.31,West,270,4.0,-999.0,79,-99.99,,,0.00,weatherlink.com 1.10,2013-02-13 19:49:00,
2013-02-13 12:04:00,41.4,35.0,30.31,WNW,288,4.0,-999.0,78,-99.99,,,0.00,weatherlink.com 1.10,2013-02-13 20:04:00,
2013-02-13 12:19:00,41.4,35.0,30.30,West,278,0.0,-999.0,78,-99.99,,,0.00,weatherlink.com 1.10,2013-02-13 20:19:00,
2013-02-13 12:34:00,41.3,35.0,30.30,NW,309,2.0,-999.0,78,-99.99,,,0.00,weatherlink.com 1.10,2013-02-13 20:34:00,
2013-02-13 12:49:00,41.7,35.0,30.30,WNW,288,7.0,-999.0,77,-99.99,,,0.00,weatherlink.com 1.10,2013-02-13 20:49:00,
2013-02-13 13:05:00,42.0,35.0,30.30,WNW,283,4.0,-999.0,75,-99.99,,,0.00,weatherlink.com 1.10,2013-02-13 21:05:00,
2013-02-13 13:19:00,42.1,34.0,30.30,WNW,288,4.0,-999.0,74,-99.99,,,0.00,weatherlink.com 1.10,2013-02-13 21:19:00,
2013-02-13 13:34:00,43.7,34.0,30.29,WNW,285,6.0,-999.0,70,-99.99,,,0.00,weatherlink.com 1.10,2013-02-13 21:34:00,
2013-02-13 13:49:00,43.0,33.0,30.29,West,276,2.0,-999.0,68,-99.99,,,0.00,weatherlink.com 1.10,2013-02-13 21:49:00,
2013-02-13 14:05:00,42.9,33.0,30.29,WNW,288,5.0,-999.0,68,-99.99,,,0.00,weatherlink.com 1.10,2013-02-13 22:05:00,
2013-02-13 14:19:00,42.6,33.0,30.30,WNW,302,5.0,-999.0,69,-99.99,,,0.00,weatherlink.com 1.10,2013-02-13 22:19:00,
2013-02-13 14:34:00,42.3,33.0,30.30,WNW,286,6.0,-999.0,70,-99.99,,,0.00,weatherlink.com 1.10,2013-02-13 22:34:00,
2013-02-13 14:49:00,42.3,33.0,30.30,WNW,285,3.0,-999.0,70,-99.99,,,0.00,weatherlink.com 1.10,2013-02-13 22:49:00,
2013-02-13 15:04:00,42.1,33.0,30.31,WNW,282,5.0,-999.0,69,-99.99,,,0.00,weatherlink.com 1.10,2013-02-13 23:04:00,
2013-02-13 15:19:00,41.8,32.0,30.31,WNW,285,6.0,-999.0,69,-99.99,,,0.00,weatherlink.com 1.10,2013-02-13 23:19:00,
2013-02-13 15:34:00,41.4,32.0,30.31,WNW,287,0.0,-999.0,69,-99.99,,,0.00,weatherlink.com 1.10,2013-02-13 23:34:00,
2013-02-13 15:49:00,41.0,32.0,30.31,WNW,296,9.0,-999.0,69,-99.99,,,0.00,weatherlink.com 1.10,2013-02-13 23:49:00,
2013-02-13 16:05:00,40.9,32.0,30.32,West,265,10.0,-999.0,70,-99.99,,,0.00,weatherlink.com 1.10,2013-02-14 00:05:00,
2013-02-13 16:20:00,40.7,32.0,30.32,West,278,7.0,-999.0,71,-99.99,,,0.00,weatherlink.com 1.10,2013-02-14 00:20:00,
2013-02-13 16:35:00,40.2,32.0,30.32,WNW,288,3.0,-999.0,73,-99.99,,,0.00,weatherlink.com 1.10,2013-02-14 00:35:00,
2013-02-13 16:49:00,40.1,32.0,30.33,West,281,5.0,-999.0,73,-99.99,,,0.00,weatherlink.com 1.10,2013-02-14 00:49:00,
2013-02-13 17:04:00,39.7,32.0,30.33,West,281,0.0,-999.0,74,-99.99,,,0.00,weatherlink.com 1.10,2013-02-14 01:04:00,
2013-02-13 17:19:00,39.6,32.0,30.33,West,266,2.0,-999.0,74,-99.99,,,0.00,weatherlink.com 1.10,2013-02-14 01:19:00,
2013-02-13 17:35:00,39.1,32.0,30.33,West,275,3.0,-999.0,76,-99.99,,,0.00,weatherlink.com 1.10,2013-02-14 01:35:00,
2013-02-13 17:50:00,39.2,33.0,30.33,WNW,302,0.0,-999.0,77,-99.99,,,0.00,weatherlink.com 1.10,2013-02-14 01:50:00,
2013-02-13 18:05:00,38.8,33.0,30.33,WNW,283,0.0,-999.0,78,-99.99,,,0.00,weatherlink.com 1.10,2013-02-14 02:05:00,
2013-02-13 18:20:00,38.5,33.0,30.34,WNW,294,0.0,-999.0,79,-99.99,,,0.00,weatherlink.com 1.10,2013-02-14 02:20:00,
2013-02-13 18:35:00,38.0,32.0,30.34,WNW,294,0.0,-999.0,80,-99.99,,,0.00,weatherlink.com 1.10,2013-02-14 02:35:00,
2013-02-13 18:50:00,37.2,32.0,30.34,WNW,294,0.0,-999.0,81,-99.99,,,0.00,weatherlink.com 1.10,2013-02-14 02:50:00,
2013-02-13 19:05:00,36.6,32.0,30.34,WNW,294,0.0,-999.0,84,-99.99,,,0.00,weatherlink.com 1.10,2013-02-14 03:05:00,
2013-02-13 19:20:00,36.2,32.0,30.35,WNW,294,0.0,-999.0,85,-99.99,,,0.00,weatherlink.com 1.10,2013-02-14 03:20:00,
2013-02-13 19:35:00,35.5,31.0,30.35,WNW,294,0.0,-999.0,85,-99.99,,,0.00,weatherlink.com 1.10,2013-02-14 03:35:00,
2013-02-13 19:50:00,34.7,31.0,30.36,WNW,294,0.0,-999.0,87,-99.99,,,0.00,weatherlink.com 1.10,2013-02-14 03:50:00,
2013-02-13 20:05:00,33.7,31.0,30.36,WNW,294,0.0,-999.0,88,-99.99,,,0.00,weatherlink.com 1.10,2013-02-14 04:05:00,
2013-02-13 20:20:00,33.4,31.0,30.35,WNW,294,0.0,-999.0,89,-99.99,,,0.00,weatherlink.com 1.10,2013-02-14 04:20:00,
2013-02-13 21:05:00,32.4,30.0,30.37,WNW,294,0.0,-999.0,91,-99.99,,,0.00,weatherlink.com 1.10,2013-02-14 05:05:00,
2013-02-13 21:20:00,32.1,30.0,30.38,WNW,294,0.0,-999.0,91,-99.99,,,0.00,weatherlink.com 1.10,2013-02-14 05:20:00,
2013-02-13 21:35:00,31.9,30.0,30.38,WNW,294,0.0,-999.0,91,-99.99,,,0.00,weatherlink.com 1.10,2013-02-14 05:35:00,
2013-02-13 21:50:00,31.4,29.0,30.39,WNW,294,0.0,-999.0,92,-99.99,,,0.00,weatherlink.com 1.10,2013-02-14 05:50:00,
2013-02-13 22:05:00,30.8,29.0,30.39,WNW,294,0.0,-999.0,92,-99.99,,,0.00,weatherlink.com 1.10,2013-02-14 06:05:00,
2013-02-13 22:20:00,30.4,28.0,30.40,WNW,294,0.0,-999.0,92,-99.99,,,0.00,weatherlink.com 1.10,2013-02-14 06:20:00,
2013-02-13 22:35:00,30.0,28.0,30.40,WNW,294,0.0,-999.0,93,-99.99,,,0.00,weatherlink.com 1.10,2013-02-14 06:35:00,
2013-02-13 22:50:00,29.4,28.0,30.40,WNW,294,0.0,-999.0,93,-99.99,,,0.00,weatherlink.com 1.10,2013-02-14 06:50:00,
2013-02-13 23:05:00,29.0,27.0,30.40,WNW,294,0.0,-999.0,93,-99.99,,,0.00,weatherlink.com 1.10,2013-02-14 07:05:00,
2013-02-13 23:20:00,28.6,27.0,30.41,WNW,294,0.0,-999.0,94,-99.99,,,0.00,weatherlink.com 1.10,2013-02-14 07:20:00,
2013-02-13 23:35:00,28.2,27.0,30.41,WNW,294,0.0,-999.0,94,-99.99,,,0.00,weatherlink.com 1.10,2013-02-14 07:35:00,
2013-02-13 23:50:00,27.8,26.0,30.42,WNW,294,0.0,-999.0,94,-99.99,,,0.00,weatherlink.com 1.10,2013-02-14 07:50:00,